createdAt,value
2018-12-12T00:00:48.989Z,5.60
2018-12-12T00:03:20.104Z,5.50
2018-12-12T00:05:51.353Z,5.40
2018-12-12T00:08:22.578Z,5.30
2018-12-12T00:10:53.607Z,5.20
2018-12-12T00:13:24.589Z,5.10
2018-12-12T00:15:55.760Z,5.10
2018-12-12T00:18:27.362Z,5.20
2018-12-12T00:20:58.588Z,5.30
2018-12-12T00:23:29.713Z,5.30
2018-12-12T00:26:00.741Z,5.40
2018-12-12T00:28:31.982Z,5.40
2018-12-12T00:31:03.103Z,5.40
2018-12-12T00:33:34.367Z,5.30
2018-12-12T00:36:05.320Z,5.30
2018-12-12T00:38:36.322Z,5.30
2018-12-12T00:41:07.329Z,5.30
2018-12-12T00:43:38.341Z,5.20
2018-12-12T00:46:09.403Z,5.20
2018-12-12T00:48:40.443Z,5.10
2018-12-12T00:51:11.448Z,5.20
2018-12-12T00:53:42.457Z,5.10
2018-12-12T00:56:13.443Z,5.20
2018-12-12T00:58:44.679Z,5.20
2018-12-12T01:01:16.463Z,5.20
2018-12-12T01:03:47.595Z,5.20
2018-12-12T01:06:18.588Z,5.20
2018-12-12T01:08:49.976Z,5.20
2018-12-12T01:11:26.710Z,5.10
2018-12-12T01:13:57.784Z,5.10
2018-12-12T01:16:28.768Z,5.20
2018-12-12T01:18:59.851Z,5.20
2018-12-12T01:21:31.312Z,5.20
2018-12-12T01:24:03.183Z,5.10
2018-12-12T01:26:34.198Z,5.10
2018-12-12T01:29:05.182Z,5.10
2018-12-12T01:31:36.863Z,5.20
2018-12-12T01:34:07.879Z,5.20
2018-12-12T01:36:39.069Z,5.30
2018-12-12T01:39:10.059Z,5.30
2018-12-12T01:41:41.036Z,5.30
2018-12-12T01:44:12.078Z,5.30
2018-12-12T01:46:43.075Z,5.30
2018-12-12T01:49:14.086Z,5.20
2018-12-12T01:51:45.520Z,5.10
2018-12-12T01:54:16.572Z,4.90
2018-12-12T01:56:48.329Z,4.70
2018-12-12T01:59:19.298Z,4.60
2018-12-12T02:01:50.525Z,4.40
2018-12-12T02:04:21.721Z,4.20
2018-12-12T02:06:52.714Z,4.20
2018-12-12T02:09:23.862Z,4.00
2018-12-12T02:11:54.849Z,3.90
2018-12-12T02:14:25.960Z,3.80
2018-12-12T02:16:57.013Z,3.70
2018-12-12T02:19:28.028Z,3.60
2018-12-12T02:21:59.737Z,3.50
2018-12-12T02:24:30.715Z,3.40
2018-12-12T02:27:02.030Z,3.30
2018-12-12T02:29:32.986Z,3.20
2018-12-12T02:32:04.249Z,3.20
2018-12-12T02:34:35.318Z,3.20
2018-12-12T02:37:06.547Z,3.10
2018-12-12T02:39:37.663Z,3.00
2018-12-12T02:42:08.799Z,3.00
2018-12-12T02:44:39.777Z,3.00
2018-12-12T02:47:10.811Z,2.90
2018-12-12T02:49:42.453Z,2.90
2018-12-12T02:52:13.511Z,2.80
2018-12-12T02:54:44.844Z,2.70
2018-12-12T02:57:15.883Z,2.60
2018-12-12T02:59:47.169Z,2.50
2018-12-12T03:02:18.305Z,2.50
2018-12-12T03:04:49.379Z,2.40
2018-12-12T03:07:20.595Z,2.40
2018-12-12T03:09:51.968Z,2.30
2018-12-12T03:12:22.904Z,2.20
2018-12-12T03:14:53.919Z,2.10
2018-12-12T03:17:24.952Z,2.10
2018-12-12T03:19:55.944Z,2.10
2018-12-12T03:22:26.911Z,2.10
2018-12-12T03:24:58.621Z,2.00
2018-12-12T03:27:29.592Z,1.90
2018-12-12T03:30:00.812Z,1.90
2018-12-12T03:32:32.498Z,1.90
2018-12-12T03:35:03.814Z,1.80
2018-12-12T03:37:35.394Z,1.90
2018-12-12T03:40:07.977Z,1.90
2018-12-12T03:42:39.349Z,1.90
2018-12-12T03:45:10.563Z,1.90
2018-12-12T03:47:41.628Z,1.80
2018-12-12T03:50:13.010Z,1.80
2018-12-12T03:52:43.971Z,1.80
2018-12-12T03:55:15.074Z,1.70
2018-12-12T03:57:46.507Z,1.70
2018-12-12T04:00:17.628Z,1.70
2018-12-12T04:02:48.626Z,1.70
2018-12-12T04:05:19.657Z,1.60
2018-12-12T04:07:50.651Z,1.60
2018-12-12T04:10:22.939Z,1.50
2018-12-12T04:12:54.060Z,1.60
2018-12-12T04:15:25.065Z,1.60
2018-12-12T04:17:56.051Z,1.60
2018-12-12T04:20:27.092Z,1.60
2018-12-12T04:22:59.663Z,1.50
2018-12-12T04:25:31.049Z,1.60
2018-12-12T04:28:01.998Z,1.50
2018-12-12T04:30:33.148Z,1.60
2018-12-12T04:33:04.378Z,1.60
2018-12-12T04:35:35.554Z,1.60
2018-12-12T04:38:06.558Z,1.60
2018-12-12T04:40:37.544Z,1.60
2018-12-12T04:43:09.101Z,1.70
2018-12-12T04:45:40.748Z,1.70
2018-12-12T04:48:11.759Z,1.60
2018-12-12T04:50:42.959Z,1.60
2018-12-12T04:53:13.943Z,1.70
2018-12-12T04:55:44.981Z,1.70
2018-12-12T04:58:16.029Z,1.70
2018-12-12T05:00:47.333Z,1.70
2018-12-12T05:03:18.464Z,1.80
2018-12-12T05:05:49.575Z,1.70
2018-12-12T05:08:21.265Z,1.70
2018-12-12T05:10:52.541Z,1.60
2018-12-12T05:13:23.514Z,1.60
2018-12-12T05:15:54.527Z,1.60
2018-12-12T05:18:25.632Z,1.50
2018-12-12T05:20:56.614Z,1.50
2018-12-12T05:23:27.947Z,1.40
2018-12-12T05:25:58.944Z,1.40
2018-12-12T05:28:30.086Z,1.30
2018-12-12T05:31:01.675Z,1.30
2018-12-12T05:33:32.801Z,1.30
2018-12-12T05:36:04.065Z,1.40
2018-12-12T05:38:35.155Z,1.30
2018-12-12T05:41:06.342Z,1.30
2018-12-12T05:43:37.470Z,1.30
2018-12-12T05:46:08.515Z,1.30
2018-12-12T05:48:39.747Z,1.20
2018-12-12T05:51:10.818Z,1.20
2018-12-12T05:53:41.883Z,1.20
2018-12-12T05:56:14.224Z,1.30
2018-12-12T05:58:45.850Z,1.40
2018-12-12T06:01:16.956Z,1.40
2018-12-12T06:03:48.008Z,1.30
2018-12-12T06:06:19.106Z,1.30
2018-12-12T06:08:51.023Z,1.30
2018-12-12T06:14:45.355Z,1.30
2018-12-12T06:17:16.394Z,1.30
2018-12-12T06:19:47.991Z,1.30
2018-12-12T06:22:19.347Z,1.40
2018-12-12T06:24:50.396Z,1.30
2018-12-12T06:27:21.361Z,1.30
2018-12-12T06:29:52.626Z,1.30
2018-12-12T06:35:55.264Z,1.20
2018-12-12T06:38:26.268Z,1.20
2018-12-12T06:40:57.432Z,1.10
2018-12-12T06:43:28.743Z,1.10
2018-12-12T06:45:59.717Z,1.00
2018-12-12T06:48:30.819Z,0.90
2018-12-12T06:51:01.830Z,0.90
2018-12-12T06:53:32.966Z,1.00
2018-12-12T06:56:04.313Z,1.10
2018-12-12T06:58:41.855Z,1.00
2018-12-12T07:01:12.857Z,1.10
2018-12-12T07:03:43.809Z,1.10
2018-12-12T07:06:14.763Z,1.10
2018-12-12T07:08:46.061Z,1.00
2018-12-12T07:11:17.015Z,1.00
2018-12-12T07:13:48.523Z,1.00
2018-12-12T07:16:20.319Z,1.10
2018-12-12T07:18:51.492Z,1.10
2018-12-12T07:21:22.476Z,1.00
2018-12-12T07:23:53.430Z,1.00
2018-12-12T07:26:24.365Z,0.90
2018-12-12T07:28:55.391Z,0.90
2018-12-12T07:31:26.737Z,0.90
2018-12-12T07:34:00.991Z,0.90
2018-12-12T07:36:31.036Z,0.90
2018-12-12T07:39:02.981Z,1.00
2018-12-12T07:41:34.278Z,1.10
2018-12-12T07:44:05.504Z,1.00
2018-12-12T07:46:37.001Z,1.00
2018-12-12T07:49:08.617Z,0.90
2018-12-12T07:51:39.683Z,0.90
2018-12-12T07:54:12.380Z,0.90
2018-12-12T07:56:43.354Z,1.00
2018-12-12T07:59:15.244Z,0.90
2018-12-12T08:01:46.279Z,0.90
2018-12-12T08:04:17.288Z,0.90
2018-12-12T08:06:48.297Z,1.20
2018-12-12T08:09:19.259Z,1.20
2018-12-12T08:11:51.088Z,1.30
2018-12-12T08:14:22.116Z,1.30
2018-12-12T08:16:53.398Z,1.30
2018-12-12T08:19:24.709Z,1.30
2018-12-12T08:21:55.774Z,1.30
2018-12-12T08:24:26.946Z,1.40
2018-12-12T08:26:58.136Z,1.40
2018-12-12T08:29:29.248Z,1.40
2018-12-12T08:32:00.343Z,1.40
2018-12-12T08:34:31.631Z,1.40
2018-12-12T08:37:02.690Z,1.50
2018-12-12T08:39:33.608Z,1.50
2018-12-12T08:42:04.616Z,1.70
2018-12-12T08:44:35.566Z,1.80
2018-12-12T08:47:08.761Z,2.00
2018-12-12T08:49:39.953Z,2.10
2018-12-12T08:52:11.637Z,2.20
2018-12-12T08:54:42.859Z,2.30
2018-12-12T08:57:14.843Z,2.40
2018-12-12T08:59:45.902Z,2.60
2018-12-12T09:02:17.016Z,2.70
2018-12-12T09:04:48.057Z,2.90
2018-12-12T09:07:19.023Z,3.00
2018-12-12T09:09:50.187Z,3.10
2018-12-12T09:12:22.182Z,3.10
2018-12-12T09:14:53.247Z,3.20
2018-12-12T09:17:24.487Z,3.30
2018-12-12T09:19:55.564Z,3.40
2018-12-12T09:22:26.745Z,3.50
2018-12-12T09:24:57.991Z,3.60
2018-12-12T09:27:28.941Z,3.60
2018-12-12T09:29:59.972Z,3.70
2018-12-12T09:32:31.149Z,3.80
2018-12-12T09:35:02.437Z,3.90
2018-12-12T09:37:33.615Z,4.00
2018-12-12T09:40:05.219Z,4.20
2018-12-12T09:42:36.193Z,4.20
2018-12-12T09:45:07.426Z,4.30
2018-12-12T09:47:45.081Z,4.30
2018-12-12T09:50:16.292Z,4.40
2018-12-12T09:52:47.375Z,4.50
2018-12-12T09:55:18.466Z,4.50
2018-12-12T09:57:49.460Z,4.60
2018-12-12T10:00:20.691Z,4.60
2018-12-12T10:02:51.780Z,4.60
2018-12-12T10:05:22.756Z,4.60
2018-12-12T10:07:53.713Z,4.70
2018-12-12T10:10:25.463Z,4.70
2018-12-12T10:12:56.466Z,4.80
2018-12-12T10:15:27.535Z,4.90
2018-12-12T10:17:58.470Z,4.90
2018-12-12T10:20:29.460Z,5.00
2018-12-12T10:23:00.488Z,5.00
2018-12-12T10:25:31.613Z,5.10
2018-12-12T10:28:02.762Z,5.10
2018-12-12T10:30:33.886Z,5.10
2018-12-12T10:33:05.173Z,5.20
2018-12-12T10:35:36.164Z,5.20
2018-12-12T10:38:07.140Z,5.20
2018-12-12T10:40:38.243Z,5.30
2018-12-12T10:43:09.333Z,5.40
2018-12-12T10:45:40.344Z,5.40
2018-12-12T10:48:11.499Z,5.60
2018-12-12T10:50:42.619Z,5.70
2018-12-12T10:53:14.912Z,5.70
2018-12-12T10:55:45.910Z,5.80
2018-12-12T10:58:16.969Z,5.80
2018-12-12T11:00:53.484Z,5.80
2018-12-12T11:03:29.640Z,5.90
2018-12-12T11:06:00.568Z,6.00
2018-12-12T11:08:31.579Z,6.00
2018-12-12T11:11:03.154Z,6.00
2018-12-12T11:13:34.141Z,6.00
2018-12-12T11:16:05.319Z,6.00
2018-12-12T11:18:36.465Z,6.00
2018-12-12T11:21:08.112Z,6.00
2018-12-12T11:23:39.064Z,6.00
2018-12-12T11:26:10.035Z,6.00
2018-12-12T11:28:40.956Z,6.00
2018-12-12T11:31:12.147Z,6.10
2018-12-12T11:33:43.688Z,6.20
2018-12-12T11:36:14.863Z,6.20
2018-12-12T11:38:45.805Z,6.20
2018-12-12T11:41:16.948Z,6.20
2018-12-12T11:43:48.014Z,6.20
2018-12-12T11:46:19.052Z,6.10
2018-12-12T11:48:50.137Z,6.10
2018-12-12T11:51:21.248Z,6.10
2018-12-12T11:53:52.853Z,6.20
2018-12-12T11:56:24.054Z,6.20
2018-12-12T11:58:55.020Z,6.20
2018-12-12T12:01:26.206Z,6.30
2018-12-12T12:03:57.292Z,6.30
2018-12-12T12:06:28.980Z,6.30
2018-12-12T12:08:59.918Z,6.30
2018-12-12T12:11:30.919Z,6.30
2018-12-12T12:14:02.123Z,6.30
2018-12-12T12:16:33.129Z,6.40
2018-12-12T12:19:04.467Z,6.40
2018-12-12T12:21:35.552Z,6.50
2018-12-12T12:24:07.224Z,6.50
2018-12-12T12:26:38.191Z,6.50
2018-12-12T12:29:09.206Z,6.50
2018-12-12T12:31:40.738Z,6.50
2018-12-12T12:34:11.829Z,6.50
2018-12-12T12:36:42.913Z,6.50
2018-12-12T12:39:14.734Z,6.60
2018-12-12T12:41:45.948Z,6.60
2018-12-12T12:44:17.584Z,6.60
2018-12-12T12:46:48.764Z,6.70
2018-12-12T12:49:19.823Z,6.70
2018-12-12T12:51:50.884Z,6.80
2018-12-12T12:54:21.910Z,6.80
2018-12-12T12:56:53.089Z,6.80
2018-12-12T12:59:24.192Z,6.80
2018-12-12T13:01:55.455Z,6.80
2018-12-12T13:04:26.409Z,6.80
2018-12-12T13:06:57.675Z,6.80
2018-12-12T13:09:28.748Z,6.80
2018-12-12T13:11:59.800Z,6.80
2018-12-12T13:14:31.408Z,6.80
2018-12-12T13:17:02.613Z,6.80
2018-12-12T13:19:33.607Z,6.80
2018-12-12T13:22:04.732Z,6.80
2018-12-12T13:24:36.375Z,6.90
2018-12-12T13:27:07.320Z,6.90
2018-12-12T13:29:38.455Z,6.90
2018-12-12T13:32:09.644Z,6.90
2018-12-12T13:34:41.225Z,6.90
2018-12-12T13:37:12.201Z,6.90
2018-12-12T13:39:43.202Z,7.40
2018-12-12T13:42:14.306Z,9.40
2018-12-12T13:44:45.553Z,10.60
2018-12-12T13:47:17.418Z,11.30
2018-12-12T13:49:48.642Z,12.60
2018-12-12T13:52:19.729Z,13.40
2018-12-12T13:54:51.102Z,13.70
2018-12-12T13:57:22.054Z,13.20
2018-12-12T13:59:53.383Z,12.10
2018-12-12T14:02:24.673Z,10.80
2018-12-12T14:04:56.543Z,9.70
2018-12-12T14:07:27.555Z,8.90
2018-12-12T14:09:59.997Z,8.30
2018-12-12T14:12:30.983Z,7.80
2018-12-12T14:15:01.922Z,7.40
2018-12-12T14:17:33.462Z,7.20
2018-12-12T14:20:05.502Z,7.00
2018-12-12T14:22:36.765Z,6.90
2018-12-12T14:25:07.858Z,6.70
2018-12-12T14:27:39.123Z,6.60
2018-12-12T14:30:10.516Z,6.60
2018-12-12T14:32:41.610Z,6.50
2018-12-12T14:35:12.598Z,6.40
2018-12-12T14:37:43.707Z,6.40
2018-12-12T14:40:14.622Z,6.40
2018-12-12T14:42:45.744Z,6.30
2018-12-12T14:45:16.962Z,6.30
2018-12-12T14:47:48.080Z,6.30
2018-12-12T14:50:18.978Z,6.20
2018-12-12T14:52:49.963Z,6.20
2018-12-12T14:55:21.038Z,6.20
2018-12-12T14:57:52.040Z,6.20
2018-12-12T15:00:23.309Z,6.10
2018-12-12T15:02:54.425Z,6.00
2018-12-12T15:05:25.331Z,6.00
2018-12-12T15:07:56.481Z,6.00
2018-12-12T15:10:27.489Z,5.90
2018-12-12T15:12:58.441Z,6.00
2018-12-12T15:15:29.356Z,5.90
2018-12-12T15:18:00.558Z,5.90
2018-12-12T15:20:32.144Z,5.80
2018-12-12T15:23:03.187Z,5.80
2018-12-12T15:25:34.429Z,5.70
2018-12-12T15:28:05.828Z,5.70
2018-12-12T15:30:36.768Z,5.60
2018-12-12T15:33:07.896Z,5.60
2018-12-12T15:35:38.828Z,5.50
2018-12-12T15:38:09.947Z,5.50
2018-12-12T15:40:41.283Z,5.40
2018-12-12T15:43:12.327Z,5.30
2018-12-12T15:45:43.502Z,5.20
2018-12-12T15:48:14.408Z,5.10
2018-12-12T15:50:45.445Z,5.10
2018-12-12T15:53:16.539Z,4.90
2018-12-12T15:55:47.476Z,4.90
2018-12-12T15:58:18.405Z,4.90
2018-12-12T16:00:49.395Z,4.80
2018-12-12T16:03:20.572Z,4.80
2018-12-12T16:05:51.594Z,4.90
2018-12-12T16:08:22.495Z,4.90
2018-12-12T16:10:53.430Z,4.80
2018-12-12T16:13:24.405Z,4.80
2018-12-12T16:15:55.645Z,4.80
2018-12-12T16:18:26.725Z,4.70
2018-12-12T16:20:57.727Z,4.70
2018-12-12T16:23:29.085Z,4.60
2018-12-12T16:26:00.158Z,4.50
2018-12-12T16:28:31.150Z,4.50
2018-12-12T16:31:02.174Z,4.60
2018-12-12T16:33:33.095Z,4.60
2018-12-12T16:36:04.034Z,4.60
2018-12-12T16:38:35.114Z,4.50
2018-12-12T16:41:06.247Z,4.40
2018-12-12T16:43:37.128Z,4.40
2018-12-12T16:46:08.184Z,4.40
2018-12-12T16:48:39.079Z,4.20
2018-12-12T16:51:10.011Z,4.20
2018-12-12T16:53:41.165Z,4.20
2018-12-12T16:56:12.124Z,4.10
2018-12-12T16:58:43.167Z,4.10
2018-12-12T17:01:14.214Z,4.10
2018-12-12T17:03:45.187Z,4.00
2018-12-12T17:06:16.272Z,4.00
2018-12-12T17:08:48.552Z,3.90
2018-12-12T17:11:24.856Z,3.90
2018-12-12T17:13:55.780Z,3.80
2018-12-12T17:16:27.469Z,3.80
2018-12-12T17:18:58.404Z,3.80
2018-12-12T17:21:29.491Z,3.80
2018-12-12T17:24:00.458Z,3.70
2018-12-12T17:26:31.619Z,3.70
2018-12-12T17:29:02.650Z,3.70
2018-12-12T17:31:33.631Z,3.60
2018-12-12T17:34:04.775Z,3.50
2018-12-12T17:36:35.788Z,3.50
2018-12-12T17:39:07.817Z,3.50
2018-12-12T17:41:39.181Z,3.50
2018-12-12T17:44:10.192Z,3.50
2018-12-12T17:46:41.363Z,3.50
2018-12-12T17:49:12.483Z,3.50
2018-12-12T17:51:43.745Z,3.50
2018-12-12T17:54:14.771Z,3.40
2018-12-12T17:56:45.935Z,3.40
2018-12-12T17:59:17.123Z,3.30
2018-12-12T18:01:48.397Z,3.30
2018-12-12T18:04:19.499Z,3.30
2018-12-12T18:06:50.555Z,3.20
2018-12-12T18:09:21.513Z,3.20
2018-12-12T18:11:52.619Z,3.20
2018-12-12T18:14:23.552Z,3.10
2018-12-12T18:16:54.557Z,3.10
2018-12-12T18:19:25.517Z,3.00
2018-12-12T18:21:56.661Z,3.00
2018-12-12T18:24:27.640Z,3.00
2018-12-12T18:26:58.638Z,2.90
2018-12-12T18:29:29.552Z,2.90
2018-12-12T18:32:00.533Z,2.80
2018-12-12T18:34:31.429Z,2.80
2018-12-12T18:37:02.660Z,2.80
2018-12-12T18:39:33.575Z,2.70
2018-12-12T18:42:05.904Z,2.70
2018-12-12T18:44:37.889Z,2.70
2018-12-12T18:47:08.886Z,2.70
2018-12-12T18:49:39.833Z,2.60
2018-12-12T18:52:11.295Z,2.60
2018-12-12T18:54:43.093Z,2.60
2018-12-12T18:57:14.541Z,2.50
2018-12-12T18:59:46.019Z,2.50
2018-12-12T19:02:16.975Z,2.50
2018-12-12T19:04:48.020Z,2.50
2018-12-12T19:07:20.236Z,2.50
2018-12-12T19:09:51.285Z,2.50
2018-12-12T19:12:22.583Z,2.50
2018-12-12T19:15:05.392Z,2.50
2018-12-12T19:17:36.795Z,2.50
2018-12-12T19:20:08.382Z,2.50
2018-12-12T19:22:39.734Z,2.50
2018-12-12T19:25:11.049Z,2.50
2018-12-12T19:27:42.544Z,2.50
2018-12-12T19:30:14.032Z,2.40
2018-12-12T19:32:45.010Z,2.30
2018-12-12T19:35:15.947Z,2.30
2018-12-12T19:37:46.902Z,2.20
2018-12-12T19:40:17.867Z,2.10
2018-12-12T19:42:49.225Z,2.10
2018-12-12T19:45:20.341Z,2.10
2018-12-12T19:47:51.515Z,2.10
2018-12-12T19:50:23.315Z,2.10
2018-12-12T19:53:33.505Z,2.10
2018-12-12T19:56:04.850Z,2.00
2018-12-12T19:58:35.996Z,2.00
2018-12-12T20:01:07.105Z,2.00
2018-12-12T20:03:39.336Z,2.00
2018-12-12T20:06:10.697Z,1.90
2018-12-12T20:08:41.765Z,1.90
2018-12-12T20:11:13.066Z,1.90
2018-12-12T20:13:45.666Z,1.90
2018-12-12T20:16:17.354Z,1.80
2018-12-12T20:18:49.512Z,1.70
2018-12-12T20:21:20.723Z,1.70
2018-12-12T20:23:51.843Z,1.70
2018-12-12T20:26:22.912Z,1.70
2018-12-12T20:29:03.227Z,1.70
2018-12-12T20:31:35.031Z,1.60
2018-12-12T20:37:30.134Z,1.70
2018-12-12T20:40:01.113Z,1.60
2018-12-12T20:42:33.123Z,1.60
2018-12-12T20:45:04.608Z,1.60
2018-12-12T20:47:35.715Z,1.50
2018-12-12T20:50:08.168Z,1.50
2018-12-12T20:52:39.625Z,1.40
2018-12-12T20:55:12.287Z,1.40
2018-12-12T20:57:44.033Z,1.30
2018-12-12T21:00:15.146Z,1.30
2018-12-12T21:02:46.281Z,1.30
2018-12-12T21:05:17.250Z,1.30
2018-12-12T21:07:48.269Z,1.30
2018-12-12T21:10:19.555Z,1.30
2018-12-12T21:12:50.638Z,1.20
2018-12-12T21:15:21.622Z,1.20
2018-12-12T21:17:52.778Z,1.30
2018-12-12T21:20:23.852Z,1.30
2018-12-12T21:22:56.689Z,1.30
2018-12-12T21:25:31.037Z,1.30
2018-12-12T21:28:02.069Z,1.20
2018-12-12T21:30:33.190Z,1.20
2018-12-12T21:33:04.756Z,1.20
2018-12-12T21:35:35.859Z,1.20
2018-12-12T21:38:07.007Z,1.20
2018-12-12T21:40:38.217Z,1.20
2018-12-12T21:43:09.835Z,1.20
2018-12-12T21:45:40.772Z,1.10
2018-12-12T21:48:12.030Z,1.10
2018-12-12T21:50:43.396Z,1.10
2018-12-12T21:53:14.383Z,1.10
2018-12-12T21:55:45.394Z,1.10
2018-12-12T21:58:16.694Z,1.10
2018-12-12T22:00:47.852Z,1.20
2018-12-12T22:03:18.790Z,1.20
2018-12-12T22:05:50.228Z,1.20
2018-12-12T22:08:21.851Z,1.20
2018-12-12T22:10:52.871Z,1.10
2018-12-12T22:13:23.817Z,1.20
2018-12-12T22:15:54.949Z,1.10
2018-12-12T22:18:26.120Z,1.10
2018-12-12T22:20:57.095Z,1.10
2018-12-12T22:23:28.604Z,1.10
2018-12-12T22:25:59.563Z,1.10
2018-12-12T22:28:30.512Z,1.10
2018-12-12T22:31:01.619Z,1.10
2018-12-12T22:33:32.788Z,1.10
2018-12-12T22:36:03.763Z,1.10
2018-12-12T22:38:34.691Z,1.00
2018-12-12T22:41:05.655Z,1.10
2018-12-12T22:43:36.605Z,1.10
2018-12-12T22:46:07.900Z,1.00
2018-12-12T22:48:38.885Z,1.00
2018-12-12T22:51:09.932Z,1.00
2018-12-12T22:53:41.216Z,1.00
2018-12-12T22:56:12.871Z,1.00
2018-12-12T22:58:43.822Z,1.00
2018-12-12T23:01:24.539Z,0.90
2018-12-12T23:03:55.599Z,0.90
2018-12-12T23:06:26.586Z,0.90
2018-12-12T23:08:58.398Z,0.90
2018-12-12T23:11:29.367Z,0.90
2018-12-12T23:14:00.335Z,0.90
2018-12-12T23:16:31.619Z,0.90
2018-12-12T23:19:02.687Z,0.90
2018-12-12T23:21:33.798Z,0.90
2018-12-12T23:24:04.968Z,0.90
2018-12-12T23:26:36.219Z,0.90
2018-12-12T23:29:07.453Z,0.90
2018-12-12T23:31:38.554Z,0.90
2018-12-12T23:34:09.620Z,0.90
2018-12-12T23:36:40.967Z,0.90
2018-12-12T23:39:12.196Z,0.90
2018-12-12T23:41:43.170Z,0.90
2018-12-12T23:44:14.118Z,0.80
2018-12-12T23:46:45.134Z,0.80
2018-12-12T23:49:16.069Z,0.80
2018-12-12T23:51:47.095Z,0.90
2018-12-12T23:54:18.039Z,0.90
2018-12-12T23:56:48.983Z,0.90
2018-12-12T23:59:19.999Z,0.80
